sensor_id;sensor_type;location;lat;lon;timestamp;pressure;altitude;pressure_sealevel;temperature;humidity
20228;BME280;12195;55.790;37.572;2022-09-27T00:02:19;99436.30;;;7.87;86.74
20228;BME280;12195;55.790;37.572;2022-09-27T00:04:51;99442.69;;;7.81;86.85
20228;BME280;12195;55.790;37.572;2022-09-27T00:07:23;99440.28;;;7.77;86.95
20228;BME280;12195;55.790;37.572;2022-09-27T00:09:55;99443.09;;;7.72;87.07
20228;BME280;12195;55.790;37.572;2022-09-27T00:12:27;99446.64;;;7.71;87.11
20228;BME280;12195;55.790;37.572;2022-09-27T00:14:59;99443.41;;;7.66;87.32
20228;BME280;12195;55.790;37.572;2022-09-27T00:17:32;99441.66;;;7.67;87.56
20228;BME280;12195;55.790;37.572;2022-09-27T00:20:05;99443.41;;;7.66;87.78
20228;BME280;12195;55.790;37.572;2022-09-27T00:22:38;99445.88;;;7.69;87.61
20228;BME280;12195;55.790;37.572;2022-09-27T00:25:10;99451.11;;;7.69;87.83
20228;BME280;12195;55.790;37.572;2022-09-27T00:27:42;99450.18;;;7.70;87.95
20228;BME280;12195;55.790;37.572;2022-09-27T00:30:14;99447.43;;;7.73;88.12
20228;BME280;12195;55.790;37.572;2022-09-27T00:32:46;99451.59;;;7.77;88.22
20228;BME280;12195;55.790;37.572;2022-09-27T00:35:18;99449.73;;;7.79;88.38
20228;BME280;12195;55.790;37.572;2022-09-27T00:37:51;99445.20;;;7.83;88.57
20228;BME280;12195;55.790;37.572;2022-09-27T00:40:23;99446.75;;;7.87;88.57
20228;BME280;12195;55.790;37.572;2022-09-27T00:42:55;99450.08;;;7.90;88.57
20228;BME280;12195;55.790;37.572;2022-09-27T00:45:27;99454.25;;;7.94;88.52
20228;BME280;12195;55.790;37.572;2022-09-27T00:48:02;99449.77;;;7.96;88.49
20228;BME280;12195;55.790;37.572;2022-09-27T00:50:38;99456.69;;;7.97;88.33
20228;BME280;12195;55.790;37.572;2022-09-27T00:53:23;99450.56;;;7.98;88.14
20228;BME280;12195;55.790;37.572;2022-09-27T00:55:59;99450.49;;;8.00;88.11
20228;BME280;12195;55.790;37.572;2022-09-27T00:58:38;99454.86;;;7.99;88.02
20228;BME280;12195;55.790;37.572;2022-09-27T01:01:10;99454.00;;;7.99;87.97
20228;BME280;12195;55.790;37.572;2022-09-27T01:03:53;99451.39;;;7.99;88.01
20228;BME280;12195;55.790;37.572;2022-09-27T01:06:25;99449.56;;;8.01;88.06
20228;BME280;12195;55.790;37.572;2022-09-27T01:08:57;99453.00;;;8.01;88.15
20228;BME280;12195;55.790;37.572;2022-09-27T01:11:37;99453.66;;;8.06;88.20
20228;BME280;12195;55.790;37.572;2022-09-27T01:17:25;99453.94;;;8.00;87.73
20228;BME280;12195;55.790;37.572;2022-09-27T01:20:10;99455.62;;;8.01;87.86
20228;BME280;12195;55.790;37.572;2022-09-27T01:31:59;99452.48;;;8.12;87.94
20228;BME280;12195;55.790;37.572;2022-09-27T01:34:43;99449.80;;;8.13;87.85
20228;BME280;12195;55.790;37.572;2022-09-27T01:37:20;99451.41;;;8.16;87.74
20228;BME280;12195;55.790;37.572;2022-09-27T01:42:38;99446.91;;;8.19;87.69
20228;BME280;12195;55.790;37.572;2022-09-27T01:45:24;99449.48;;;8.21;87.39
20228;BME280;12195;55.790;37.572;2022-09-27T01:48:14;99451.09;;;8.23;87.29
20228;BME280;12195;55.790;37.572;2022-09-27T01:53:49;99437.23;;;8.21;87.17
20228;BME280;12195;55.790;37.572;2022-09-27T01:56:34;99438.20;;;8.19;87.08
20228;BME280;12195;55.790;37.572;2022-09-27T01:59:19;99445.22;;;8.18;87.08
20228;BME280;12195;55.790;37.572;2022-09-27T02:01:55;99439.98;;;8.18;87.01
20228;BME280;12195;55.790;37.572;2022-09-27T02:04:32;99434.65;;;8.20;86.91
20228;BME280;12195;55.790;37.572;2022-09-27T02:07:28;99436.52;;;8.18;86.87
20228;BME280;12195;55.790;37.572;2022-09-27T02:10:03;99441.74;;;8.18;86.95
20228;BME280;12195;55.790;37.572;2022-09-27T02:12:39;99438.27;;;8.17;86.93
20228;BME280;12195;55.790;37.572;2022-09-27T02:15:14;99426.98;;;8.17;86.83
20228;BME280;12195;55.790;37.572;2022-09-27T02:18:02;99433.11;;;8.16;86.64
20228;BME280;12195;55.790;37.572;2022-09-27T02:20:37;99444.42;;;8.16;86.89
20228;BME280;12195;55.790;37.572;2022-09-27T02:28:56;99449.59;;;8.18;87.11
20228;BME280;12195;55.790;37.572;2022-09-27T02:31:30;99451.34;;;8.17;87.08
20228;BME280;12195;55.790;37.572;2022-09-27T02:34:43;99451.20;;;8.20;87.17
20228;BME280;12195;55.790;37.572;2022-09-27T02:36:46;99447.69;;;8.21;87.02
20228;BME280;12195;55.790;37.572;2022-09-27T02:39:19;99455.53;;;8.21;86.83
20228;BME280;12195;55.790;37.572;2022-09-27T02:41:53;99454.64;;;8.22;86.81
20228;BME280;12195;55.790;37.572;2022-09-27T02:44:28;99455.47;;;8.23;86.53
20228;BME280;12195;55.790;37.572;2022-09-27T03:02:15;99460.12;;;8.16;86.43
20228;BME280;12195;55.790;37.572;2022-09-27T03:05:12;99462.12;;;8.11;86.14
20228;BME280;12195;55.790;37.572;2022-09-27T03:07:45;99453.66;;;8.06;86.01
20228;BME280;12195;55.790;37.572;2022-09-27T03:10:21;99463.64;;;7.98;85.66
20228;BME280;12195;55.790;37.572;2022-09-27T03:12:54;99468.52;;;7.87;85.54
20228;BME280;12195;55.790;37.572;2022-09-27T03:15:27;99463.80;;;7.77;85.53
20228;BME280;12195;55.790;37.572;2022-09-27T03:18:06;99461.69;;;7.66;85.64
20228;BME280;12195;55.790;37.572;2022-09-27T03:20:46;99456.11;;;7.55;85.76
20228;BME280;12195;55.790;37.572;2022-09-27T03:23:20;99465.30;;;7.45;86.03
20228;BME280;12195;55.790;37.572;2022-09-27T03:25:53;99465.56;;;7.39;86.31
20228;BME280;12195;55.790;37.572;2022-09-27T03:28:26;99469.30;;;7.34;86.42
20228;BME280;12195;55.790;37.572;2022-09-27T03:30:59;99467.84;;;7.28;86.56
20228;BME280;12195;55.790;37.572;2022-09-27T03:33:33;99468.83;;;7.26;86.73
20228;BME280;12195;55.790;37.572;2022-09-27T03:36:07;99475.87;;;7.24;87.04
20228;BME280;12195;55.790;37.572;2022-09-27T03:38:39;99480.95;;;7.27;87.33
20228;BME280;12195;55.790;37.572;2022-09-27T03:41:13;99476.38;;;7.32;87.41
20228;BME280;12195;55.790;37.572;2022-09-27T03:43:46;99483.09;;;7.37;87.42
20228;BME280;12195;55.790;37.572;2022-09-27T03:46:18;99477.73;;;7.40;87.59
20228;BME280;12195;55.790;37.572;2022-09-27T03:48:50;99486.20;;;7.45;87.43
20228;BME280;12195;55.790;37.572;2022-09-27T03:51:23;99472.98;;;7.48;87.59
20228;BME280;12195;55.790;37.572;2022-09-27T03:53:55;99478.06;;;7.51;87.66
20228;BME280;12195;55.790;37.572;2022-09-27T03:56:28;99476.31;;;7.52;87.66
20228;BME280;12195;55.790;37.572;2022-09-27T03:59:00;99477.94;;;7.54;87.61
20228;BME280;12195;55.790;37.572;2022-09-27T04:01:34;99485.47;;;7.60;87.58
20228;BME280;12195;55.790;37.572;2022-09-27T04:04:09;99488.75;;;7.65;87.68
20228;BME280;12195;55.790;37.572;2022-09-27T04:06:42;99478.98;;;7.69;87.79
20228;BME280;12195;55.790;37.572;2022-09-27T04:09:14;99476.94;;;7.75;87.51
20228;BME280;12195;55.790;37.572;2022-09-27T04:11:48;99482.72;;;7.82;87.52
20228;BME280;12195;55.790;37.572;2022-09-27T04:14:21;99478.84;;;7.90;87.89
20228;BME280;12195;55.790;37.572;2022-09-27T04:17:01;99488.30;;;7.93;87.62
20228;BME280;12195;55.790;37.572;2022-09-27T04:19:35;99487.09;;;8.00;87.77
20228;BME280;12195;55.790;37.572;2022-09-27T04:22:09;99485.65;;;8.11;88.07
20228;BME280;12195;55.790;37.572;2022-09-27T04:24:45;99481.55;;;8.24;88.12
20228;BME280;12195;55.790;37.572;2022-09-27T04:27:18;99489.48;;;8.40;87.92
20228;BME280;12195;55.790;37.572;2022-09-27T04:29:52;99486.86;;;8.57;87.98
20228;BME280;12195;55.790;37.572;2022-09-27T04:32:43;99485.17;;;8.73;87.31
20228;BME280;12195;55.790;37.572;2022-09-27T04:35:35;99485.27;;;8.88;86.73
20228;BME280;12195;55.790;37.572;2022-09-27T04:38:25;99477.60;;;9.01;86.20
20228;BME280;12195;55.790;37.572;2022-09-27T04:40:57;99482.91;;;9.16;86.23
20228;BME280;12195;55.790;37.572;2022-09-27T04:43:33;99483.95;;;9.29;85.64
20228;BME280;12195;55.790;37.572;2022-09-27T04:46:05;99484.13;;;9.42;84.99
20228;BME280;12195;55.790;37.572;2022-09-27T04:48:37;99490.00;;;9.62;84.75
20228;BME280;12195;55.790;37.572;2022-09-27T04:51:10;99491.45;;;9.83;83.84
20228;BME280;12195;55.790;37.572;2022-09-27T04:53:44;99484.34;;;10.01;82.65
20228;BME280;12195;55.790;37.572;2022-09-27T04:56:16;99486.31;;;10.13;81.61
20228;BME280;12195;55.790;37.572;2022-09-27T04:58:48;99486.81;;;10.19;80.19
20228;BME280;12195;55.790;37.572;2022-09-27T05:01:22;99487.47;;;10.23;79.30
20228;BME280;12195;55.790;37.572;2022-09-27T05:03:57;99487.11;;;10.29;78.82
20228;BME280;12195;55.790;37.572;2022-09-27T05:06:30;99489.48;;;10.33;78.74
20228;BME280;12195;55.790;37.572;2022-09-27T05:09:04;99499.66;;;10.39;78.29
20228;BME280;12195;55.790;37.572;2022-09-27T05:11:53;99498.55;;;10.43;77.92
20228;BME280;12195;55.790;37.572;2022-09-27T05:14:42;99494.78;;;10.47;77.66
20228;BME280;12195;55.790;37.572;2022-09-27T05:17:16;99493.33;;;10.57;78.50
20228;BME280;12195;55.790;37.572;2022-09-27T05:19:52;99493.98;;;11.04;78.65
20228;BME280;12195;55.790;37.572;2022-09-27T05:22:30;99479.36;;;11.57;76.08
20228;BME280;12195;55.790;37.572;2022-09-27T05:25:04;99487.12;;;12.27;74.07
20228;BME280;12195;55.790;37.572;2022-09-27T05:27:38;99481.13;;;13.03;70.15
20228;BME280;12195;55.790;37.572;2022-09-27T05:30:12;99480.80;;;13.93;66.77
20228;BME280;12195;55.790;37.572;2022-09-27T05:32:48;99478.42;;;14.61;63.91
20228;BME280;12195;55.790;37.572;2022-09-27T05:35:38;99479.98;;;14.98;62.64
20228;BME280;12195;55.790;37.572;2022-09-27T05:38:14;99481.72;;;15.21;61.08
20228;BME280;12195;55.790;37.572;2022-09-27T05:40:47;99473.55;;;15.24;60.35
20228;BME280;12195;55.790;37.572;2022-09-27T05:43:22;99471.16;;;15.32;59.42
20228;BME280;12195;55.790;37.572;2022-09-27T05:45:55;99472.22;;;15.18;59.22
20228;BME280;12195;55.790;37.572;2022-09-27T05:48:29;99472.27;;;14.84;59.80
20228;BME280;12195;55.790;37.572;2022-09-27T05:51:06;99471.45;;;14.60;60.98
20228;BME280;12195;55.790;37.572;2022-09-27T05:53:40;99472.84;;;14.42;61.37
20228;BME280;12195;55.790;37.572;2022-09-27T05:56:14;99468.48;;;14.41;61.93
20228;BME280;12195;55.790;37.572;2022-09-27T05:58:49;99471.62;;;14.69;61.31
20228;BME280;12195;55.790;37.572;2022-09-27T06:01:23;99462.70;;;15.27;59.44
20228;BME280;12195;55.790;37.572;2022-09-27T06:04:02;99459.81;;;16.07;56.76
20228;BME280;12195;55.790;37.572;2022-09-27T06:06:40;99455.27;;;16.72;54.89
20228;BME280;12195;55.790;37.572;2022-09-27T06:09:14;99446.45;;;17.13;53.26
20228;BME280;12195;55.790;37.572;2022-09-27T06:11:48;99409.58;;;17.40;52.31
20228;BME280;12195;55.790;37.572;2022-09-27T06:14:21;99442.38;;;17.59;51.55
20228;BME280;12195;55.790;37.572;2022-09-27T06:17:04;99449.95;;;17.64;52.31
20228;BME280;12195;55.790;37.572;2022-09-27T06:19:38;99447.22;;;17.84;50.82
20228;BME280;12195;55.790;37.572;2022-09-27T06:22:11;99445.58;;;17.33;51.63
20228;BME280;12195;55.790;37.572;2022-09-27T06:24:45;99441.81;;;16.64;53.29
20228;BME280;12195;55.790;37.572;2022-09-27T06:27:19;99446.70;;;16.48;55.16
20228;BME280;12195;55.790;37.572;2022-09-27T06:29:53;99444.11;;;17.19;52.82
20228;BME280;12195;55.790;37.572;2022-09-27T06:32:39;99447.51;;;17.91;51.15
20228;BME280;12195;55.790;37.572;2022-09-27T06:35:28;99438.69;;;18.39;49.99
20228;BME280;12195;55.790;37.572;2022-09-27T06:38:05;99438.45;;;19.17;47.80
20228;BME280;12195;55.790;37.572;2022-09-27T06:40:42;99436.53;;;19.55;47.05
20228;BME280;12195;55.790;37.572;2022-09-27T06:43:19;99441.38;;;19.33;47.50
20228;BME280;12195;55.790;37.572;2022-09-27T06:45:53;99439.44;;;19.16;47.73
20228;BME280;12195;55.790;37.572;2022-09-27T06:48:43;99435.55;;;18.91;48.85
20228;BME280;12195;55.790;37.572;2022-09-27T06:51:17;99432.47;;;18.29;49.79
20228;BME280;12195;55.790;37.572;2022-09-27T06:53:51;99432.74;;;17.58;50.84
20228;BME280;12195;55.790;37.572;2022-09-27T06:56:23;99427.59;;;16.86;52.67
20228;BME280;12195;55.790;37.572;2022-09-27T06:58:57;99427.48;;;16.24;55.11
20228;BME280;12195;55.790;37.572;2022-09-27T07:01:49;99430.00;;;15.83;56.17
20228;BME280;12195;55.790;37.572;2022-09-27T07:04:38;99437.52;;;15.56;57.30
20228;BME280;12195;55.790;37.572;2022-09-27T07:07:12;99427.28;;;15.51;57.91
20228;BME280;12195;55.790;37.572;2022-09-27T07:09:46;99434.48;;;15.60;57.60
20228;BME280;12195;55.790;37.572;2022-09-27T07:12:19;99432.77;;;15.81;56.84
20228;BME280;12195;55.790;37.572;2022-09-27T07:14:53;99431.78;;;15.93;56.47
20228;BME280;12195;55.790;37.572;2022-09-27T07:17:25;99438.41;;;16.31;55.19
20228;BME280;12195;55.790;37.572;2022-09-27T07:19:57;99438.41;;;16.31;55.19
20228;BME280;12195;55.790;37.572;2022-09-27T07:22:31;99442.63;;;16.33;54.64
20228;BME280;12195;55.790;37.572;2022-09-27T07:25:05;99445.57;;;16.19;54.40
20228;BME280;12195;55.790;37.572;2022-09-27T07:27:38;99448.77;;;15.91;55.32
20228;BME280;12195;55.790;37.572;2022-09-27T07:30:13;99451.34;;;15.70;55.92
20228;BME280;12195;55.790;37.572;2022-09-27T07:32:47;99448.93;;;15.67;56.32
20228;BME280;12195;55.790;37.572;2022-09-27T07:35:20;99451.93;;;15.74;56.07
20228;BME280;12195;55.790;37.572;2022-09-27T07:37:52;99451.93;;;15.74;56.07
20228;BME280;12195;55.790;37.572;2022-09-27T07:40:25;99444.22;;;15.71;56.13
20228;BME280;12195;55.790;37.572;2022-09-27T07:42:58;99441.58;;;15.60;55.86
20228;BME280;12195;55.790;37.572;2022-09-27T07:45:30;99443.63;;;15.56;56.10
20228;BME280;12195;55.790;37.572;2022-09-27T07:48:09;99444.25;;;15.49;55.88
20228;BME280;12195;55.790;37.572;2022-09-27T07:51:00;99449.99;;;15.32;55.65
20228;BME280;12195;55.790;37.572;2022-09-27T07:53:43;99446.84;;;15.16;55.96
20228;BME280;12195;55.790;37.572;2022-09-27T07:56:17;99439.03;;;15.14;56.86
20228;BME280;12195;55.790;37.572;2022-09-27T07:58:49;99441.07;;;15.22;57.32
20228;BME280;12195;55.790;37.572;2022-09-27T08:01:22;99443.27;;;15.39;56.82
20228;BME280;12195;55.790;37.572;2022-09-27T08:03:54;99443.63;;;15.56;55.22
20228;BME280;12195;55.790;37.572;2022-09-27T08:06:29;99443.63;;;15.56;55.22
20228;BME280;12195;55.790;37.572;2022-09-27T08:09:04;99435.92;;;15.53;56.08
20228;BME280;12195;55.790;37.572;2022-09-27T08:11:35;99437.52;;;15.45;56.49
20228;BME280;12195;55.790;37.572;2022-09-27T08:14:09;99433.42;;;15.41;56.82
20228;BME280;12195;55.790;37.572;2022-09-27T08:16:43;99446.88;;;15.38;56.26
20228;BME280;12195;55.790;37.572;2022-09-27T08:19:32;99441.20;;;15.31;56.02
20228;BME280;12195;55.790;37.572;2022-09-27T08:22:07;99437.72;;;15.20;56.19
20228;BME280;12195;55.790;37.572;2022-09-27T08:24:50;99444.44;;;15.13;57.17
20228;BME280;12195;55.790;37.572;2022-09-27T08:27:27;99442.38;;;15.16;56.35
20228;BME280;12195;55.790;37.572;2022-09-27T08:30:01;99441.56;;;15.16;55.26
20228;BME280;12195;55.790;37.572;2022-09-27T08:32:33;99428.09;;;15.08;54.93
20228;BME280;12195;55.790;37.572;2022-09-27T08:35:08;99428.09;;;15.08;54.93
20228;BME280;12195;55.790;37.572;2022-09-27T08:37:41;99419.16;;;14.98;55.94
20228;BME280;12195;55.790;37.572;2022-09-27T08:40:14;99430.34;;;14.90;56.87
20228;BME280;12195;55.790;37.572;2022-09-27T08:42:57;99421.70;;;14.88;55.58
20228;BME280;12195;55.790;37.572;2022-09-27T08:45:39;99426.61;;;14.93;55.98
20228;BME280;12195;55.790;37.572;2022-09-27T08:48:11;99422.89;;;14.95;55.59
20228;BME280;12195;55.790;37.572;2022-09-27T08:50:47;99431.19;;;15.02;56.42
20228;BME280;12195;55.790;37.572;2022-09-27T08:53:31;99433.01;;;15.01;55.67
20228;BME280;12195;55.790;37.572;2022-09-27T08:56:00;99434.94;;;15.10;56.00
20228;BME280;12195;55.790;37.572;2022-09-27T08:59:03;99417.62;;;15.06;56.06
20228;BME280;12195;55.790;37.572;2022-09-27T09:01:36;99434.87;;;15.45;55.15
20228;BME280;12195;55.790;37.572;2022-09-27T09:04:11;99434.87;;;15.45;55.15
20228;BME280;12195;55.790;37.572;2022-09-27T09:12:51;99422.00;;;16.05;53.54
20228;BME280;12195;55.790;37.572;2022-09-27T09:24:07;99413.02;;;16.28;53.23
20228;BME280;12195;55.790;37.572;2022-09-27T09:34:46;99405.14;;;16.49;46.99
20228;BME280;12195;55.790;37.572;2022-09-27T09:37:21;99416.77;;;16.57;47.34
20228;BME280;12195;55.790;37.572;2022-09-27T09:39:59;99416.77;;;16.57;47.52
20228;BME280;12195;55.790;37.572;2022-09-27T09:42:46;99412.94;;;16.50;47.43
20228;BME280;12195;55.790;37.572;2022-09-27T09:45:25;99412.94;;;16.50;47.43
20228;BME280;12195;55.790;37.572;2022-09-27T09:48:05;99417.34;;;16.29;47.56
20228;BME280;12195;55.790;37.572;2022-09-27T09:50:48;99420.32;;;16.04;48.28
20228;BME280;12195;55.790;37.572;2022-09-27T09:56:08;99420.39;;;15.71;49.24
20228;BME280;12195;55.790;37.572;2022-09-27T09:58:52;99417.05;;;15.58;49.19
20228;BME280;12195;55.790;37.572;2022-09-27T10:01:38;99402.49;;;15.52;50.09
20228;BME280;12195;55.790;37.572;2022-09-27T10:04:24;99390.70;;;15.45;50.58
20228;BME280;12195;55.790;37.572;2022-09-27T10:07:00;99409.22;;;15.67;51.09
20228;BME280;12195;55.790;37.572;2022-09-27T10:09:33;99412.92;;;15.76;50.06
20228;BME280;12195;55.790;37.572;2022-09-27T10:12:23;99419.01;;;15.98;51.52
20228;BME280;12195;55.790;37.572;2022-09-27T10:14:58;99407.17;;;15.60;50.16
20228;BME280;12195;55.790;37.572;2022-09-27T10:17:40;99401.44;;;15.44;50.62
20228;BME280;12195;55.790;37.572;2022-09-27T10:26:04;99402.48;;;15.30;49.73
20228;BME280;12195;55.790;37.572;2022-09-27T10:28:41;99410.70;;;15.38;49.44
20228;BME280;12195;55.790;37.572;2022-09-27T10:31:18;99401.41;;;15.55;49.86
20228;BME280;12195;55.790;37.572;2022-09-27T10:34:05;99405.25;;;15.73;49.14
20228;BME280;12195;55.790;37.572;2022-09-27T10:36:37;99402.75;;;16.03;47.71
20228;BME280;12195;55.790;37.572;2022-09-27T10:39:20;99401.32;;;16.31;47.72
20228;BME280;12195;55.790;37.572;2022-09-27T10:41:46;99395.16;;;16.41;46.96
20228;BME280;12195;55.790;37.572;2022-09-27T10:44:28;99401.65;;;16.37;46.10
20228;BME280;12195;55.790;37.572;2022-09-27T10:47:08;99394.02;;;16.23;45.70
20228;BME280;12195;55.790;37.572;2022-09-27T10:49:49;99386.62;;;16.06;46.60
20228;BME280;12195;55.790;37.572;2022-09-27T10:52:26;99383.14;;;15.94;46.92
20228;BME280;12195;55.790;37.572;2022-09-27T10:55:24;99389.08;;;15.87;47.73
20228;BME280;12195;55.790;37.572;2022-09-27T10:57:33;99390.05;;;15.86;48.19
20228;BME280;12195;55.790;37.572;2022-09-27T11:00:28;99381.13;;;15.87;47.91
20228;BME280;12195;55.790;37.572;2022-09-27T11:03:02;99393.16;;;15.91;48.07
20228;BME280;12195;55.790;37.572;2022-09-27T11:05:37;99386.86;;;16.03;48.01
20228;BME280;12195;55.790;37.572;2022-09-27T11:14:00;99382.44;;;16.24;47.66
20228;BME280;12195;55.790;37.572;2022-09-27T11:19:50;99385.95;;;16.25;46.25
20228;BME280;12195;55.790;37.572;2022-09-27T11:30:46;99374.31;;;16.05;47.29
20228;BME280;12195;55.790;37.572;2022-09-27T11:36:20;99370.52;;;15.98;47.02
20228;BME280;12195;55.790;37.572;2022-09-27T11:44:45;99372.48;;;16.17;47.98
20228;BME280;12195;55.790;37.572;2022-09-27T12:04:44;99340.28;;;15.69;47.92
20228;BME280;12195;55.790;37.572;2022-09-27T12:07:30;99353.24;;;15.72;49.34
20228;BME280;12195;55.790;37.572;2022-09-27T12:10:06;99353.39;;;15.70;46.85
20228;BME280;12195;55.790;37.572;2022-09-27T12:12:40;99364.22;;;15.67;47.64
20228;BME280;12195;55.790;37.572;2022-09-27T12:15:21;99364.22;;;15.67;47.64
20228;BME280;12195;55.790;37.572;2022-09-27T12:17:53;99357.25;;;15.66;47.02
20228;BME280;12195;55.790;37.572;2022-09-27T12:20:31;99351.96;;;15.66;47.24
20228;BME280;12195;55.790;37.572;2022-09-27T12:25:52;99343.22;;;16.18;47.13
20228;BME280;12195;55.790;37.572;2022-09-27T12:31:20;99328.60;;;18.78;41.59
20228;BME280;12195;55.790;37.572;2022-09-27T12:34:25;99319.59;;;21.34;37.51
20228;BME280;12195;55.790;37.572;2022-09-27T12:39:55;99307.80;;;26.03;28.09
20228;BME280;12195;55.790;37.572;2022-09-27T12:42:38;99294.94;;;27.70;25.60
20228;BME280;12195;55.790;37.572;2022-09-27T12:45:13;99297.18;;;29.18;23.72
20228;BME280;12195;55.790;37.572;2022-09-27T12:47:51;99294.94;;;30.03;22.33
20228;BME280;12195;55.790;37.572;2022-09-27T12:53:35;99288.75;;;29.96;22.84
20228;BME280;12195;55.790;37.572;2022-09-27T13:04:56;99285.31;;;26.31;25.98
20228;BME280;12195;55.790;37.572;2022-09-27T13:08:08;99275.67;;;24.86;27.17
20228;BME280;12195;55.790;37.572;2022-09-27T13:13:36;99285.52;;;21.78;31.28
20228;BME280;12195;55.790;37.572;2022-09-27T13:16:10;99287.08;;;20.54;33.99
20228;BME280;12195;55.790;37.572;2022-09-27T13:18:56;99286.53;;;19.72;35.82
20228;BME280;12195;55.790;37.572;2022-09-27T13:24:40;99288.08;;;18.48;38.17
20228;BME280;12195;55.790;37.572;2022-09-27T13:39:12;99278.86;;;16.27;44.36
20228;BME280;12195;55.790;37.572;2022-09-27T13:44:42;99281.19;;;15.68;45.74
20228;BME280;12195;55.790;37.572;2022-09-27T13:47:33;99281.63;;;15.42;46.40
20228;BME280;12195;55.790;37.572;2022-09-27T13:52:58;99282.98;;;15.03;47.62
20228;BME280;12195;55.790;37.572;2022-09-27T13:55:45;99285.05;;;14.89;47.72
20228;BME280;12195;55.790;37.572;2022-09-27T14:01:22;99288.27;;;14.59;48.31
20228;BME280;12195;55.790;37.572;2022-09-27T14:04:03;99268.80;;;14.38;48.72
20228;BME280;12195;55.790;37.572;2022-09-27T14:06:42;99269.66;;;14.39;49.10
20228;BME280;12195;55.790;37.572;2022-09-27T14:09:25;99252.41;;;14.11;49.69
20228;BME280;12195;55.790;37.572;2022-09-27T14:11:52;99252.41;;;14.11;49.69
20228;BME280;12195;55.790;37.572;2022-09-27T14:14:28;99281.83;;;14.18;49.90
20228;BME280;12195;55.790;37.572;2022-09-27T14:17:01;99258.26;;;14.04;50.45
20228;BME280;12195;55.790;37.572;2022-09-27T14:19:38;99276.66;;;14.16;50.65
20228;BME280;12195;55.790;37.572;2022-09-27T14:22:17;99281.38;;;14.24;50.86
20228;BME280;12195;55.790;37.572;2022-09-27T14:24:57;99264.23;;;14.29;50.98
20228;BME280;12195;55.790;37.572;2022-09-27T14:27:35;99270.11;;;14.33;50.99
20228;BME280;12195;55.790;37.572;2022-09-27T14:30:18;99265.69;;;14.33;50.90
20228;BME280;12195;55.790;37.572;2022-09-27T14:32:53;99272.05;;;14.31;51.32
20228;BME280;12195;55.790;37.572;2022-09-27T14:35:30;99260.25;;;14.24;51.49
20228;BME280;12195;55.790;37.572;2022-09-27T14:38:21;99271.27;;;14.18;51.97
20228;BME280;12195;55.790;37.572;2022-09-27T14:41:01;99266.44;;;14.12;52.44
20228;BME280;12195;55.790;37.572;2022-09-27T14:43:35;99270.41;;;14.06;53.05
20228;BME280;12195;55.790;37.572;2022-09-27T14:46:32;99270.41;;;14.06;53.05
20228;BME280;12195;55.790;37.572;2022-09-27T14:48:41;99284.77;;;14.26;51.77
20228;BME280;12195;55.790;37.572;2022-09-27T14:51:17;99270.52;;;14.05;52.91
20228;BME280;12195;55.790;37.572;2022-09-27T14:53:51;99284.28;;;13.97;53.28
20228;BME280;12195;55.790;37.572;2022-09-27T14:56:27;99267.95;;;13.92;53.85
20228;BME280;12195;55.790;37.572;2022-09-27T14:59:19;99267.47;;;13.87;54.17
20228;BME280;12195;55.790;37.572;2022-09-27T15:01:52;99265.41;;;13.80;55.04
20228;BME280;12195;55.790;37.572;2022-09-27T15:04:25;99265.41;;;13.80;55.04
20228;BME280;12195;55.790;37.572;2022-09-27T15:07:00;99263.70;;;13.79;55.07
20228;BME280;12195;55.790;37.572;2022-09-27T15:09:33;99260.35;;;13.77;55.34
20228;BME280;12195;55.790;37.572;2022-09-27T15:12:06;99260.57;;;13.74;55.68
20228;BME280;12195;55.790;37.572;2022-09-27T15:14:39;99249.41;;;13.70;55.91
20228;BME280;12195;55.790;37.572;2022-09-27T15:17:16;99261.97;;;13.67;55.77
20228;BME280;12195;55.790;37.572;2022-09-27T15:20:02;99259.70;;;13.62;56.75
20228;BME280;12195;55.790;37.572;2022-09-27T15:22:40;99255.81;;;13.55;56.66
20228;BME280;12195;55.790;37.572;2022-09-27T15:25:40;99255.81;;;13.55;56.82
20228;BME280;12195;55.790;37.572;2022-09-27T15:27:55;99248.98;;;13.53;57.14
20228;BME280;12195;55.790;37.572;2022-09-27T15:30:38;99265.77;;;13.52;56.89
20228;BME280;12195;55.790;37.572;2022-09-27T15:33:23;99250.16;;;13.49;57.18
20228;BME280;12195;55.790;37.572;2022-09-27T15:35:56;99255.65;;;13.46;57.06
20228;BME280;12195;55.790;37.572;2022-09-27T15:41:18;99251.55;;;13.42;56.99
20228;BME280;12195;55.790;37.572;2022-09-27T15:43:52;99242.43;;;13.35;57.89
20228;BME280;12195;55.790;37.572;2022-09-27T15:49:18;99234.66;;;13.21;58.55
20228;BME280;12195;55.790;37.572;2022-09-27T15:51:57;99234.16;;;13.16;58.53
20228;BME280;12195;55.790;37.572;2022-09-27T15:54:25;99231.13;;;13.09;58.59
20228;BME280;12195;55.790;37.572;2022-09-27T15:57:05;99225.58;;;13.01;59.26
20228;BME280;12195;55.790;37.572;2022-09-27T15:59:39;99235.89;;;12.92;59.21
20228;BME280;12195;55.790;37.572;2022-09-27T16:02:15;99231.19;;;12.84;59.43
20228;BME280;12195;55.790;37.572;2022-09-27T16:04:49;99233.31;;;12.79;59.57
20228;BME280;12195;55.790;37.572;2022-09-27T16:07:22;99230.38;;;12.71;59.95
20228;BME280;12195;55.790;37.572;2022-09-27T16:09:55;99231.65;;;12.66;60.47
20228;BME280;12195;55.790;37.572;2022-09-27T16:12:27;99231.86;;;12.63;60.59
20228;BME280;12195;55.790;37.572;2022-09-27T16:15:01;99223.44;;;12.58;61.08
20228;BME280;12195;55.790;37.572;2022-09-27T16:17:33;99226.90;;;12.58;61.27
20228;BME280;12195;55.790;37.572;2022-09-27T16:20:09;99217.73;;;12.64;60.48
20228;BME280;12195;55.790;37.572;2022-09-27T16:22:40;99217.02;;;12.62;61.00
20228;BME280;12195;55.790;37.572;2022-09-27T16:25:12;99206.58;;;12.60;60.62
20228;BME280;12195;55.790;37.572;2022-09-27T16:27:46;99213.12;;;12.55;60.98
20228;BME280;12195;55.790;37.572;2022-09-27T16:30:18;99206.99;;;12.54;61.05